Aviation Digital Data Service (ADDS)

Output produced by METARs form (0146 UTC 22 February 2019)
found at http://www.aviationweather.gov/metar/data/
 
Forecast for: DAOI (CHLEF , DZ)
Text: TAF DAOI 212300Z 2200/2224 VRB02KT 8000 NSC
Forecast period: 0000 to 1200 UTC 22 February 2019
Forecast type: FROM: standard forecast or significant change
Winds: variable direction winds at 2 MPH (2 knots; 1.0 m/s)
Visibility: 5 miles (8 km)
Ceiling: unknown
Clouds: missing
Weather: no significant weather forecast for this period
Text: TEMPO 2202/2209 3000 BR
Forecast period: 0200 to 0900 UTC 22 February 2019
Forecast type: TEMPORARY: The following changes expected for less than half the time period
Visibility: 1.86 miles (2.99 km)
Ceiling: unknown
Clouds: missing
Weather: BR  (mist)
Text: PROB40
Forecast period: 0300 to 0900 UTC 22 February 2019
Forecast type: TEMPORARY: The following changes expected for less than half the time period
Visibility: 0.31 miles (0.50 km)
Ceiling: at least 12,000 feet AGL
Clouds: scattered clouds at 1000 feet AGL
Weather: FG  (fog)
Text: TEMPO 2203/2209 0500 FG SCT010
Forecast period: 1200 UTC 22 February 2019 to 0000 UTC 23 February 2019
Forecast type: BECOMING: Conditions expected to become as follows by 1400 UTC 22 February 2019
Winds: from the N (350 degrees) at 9 MPH (8 knots; 4.1 m/s)
Visibility: 6 or more miles 10+ km)
Ceiling: unknown
Clouds: missing
Weather: NSW  (no significant weather)